sensor_id;sensor_type;location;lat;lon;timestamp;P1;durP1;ratioP1;P2;durP2;ratioP2
8946;SDS011;4508;48.790;9.028;2022-09-17T00:01:35;1.95;;;1.70;;
8946;SDS011;4508;48.790;9.028;2022-09-17T00:04:02;2.70;;;1.60;;
8946;SDS011;4508;48.790;9.028;2022-09-17T00:06:29;2.23;;;1.70;;
8946;SDS011;4508;48.790;9.028;2022-09-17T00:08:57;2.80;;;1.57;;
8946;SDS011;4508;48.790;9.028;2022-09-17T00:11:26;2.10;;;1.40;;
8946;SDS011;4508;48.790;9.028;2022-09-17T00:13:55;1.50;;;1.40;;
8946;SDS011;4508;48.790;9.028;2022-09-17T00:16:24;2.23;;;1.40;;
8946;SDS011;4508;48.790;9.028;2022-09-17T00:18:54;2.05;;;1.80;;
8946;SDS011;4508;48.790;9.028;2022-09-17T00:21:21;1.70;;;1.60;;
8946;SDS011;4508;48.790;9.028;2022-09-17T00:23:51;2.28;;;1.60;;
8946;SDS011;4508;48.790;9.028;2022-09-17T00:26:19;1.42;;;1.25;;
8946;SDS011;4508;48.790;9.028;2022-09-17T00:28:47;1.50;;;1.40;;
8946;SDS011;4508;48.790;9.028;2022-09-17T00:31:15;2.28;;;1.35;;
8946;SDS011;4508;48.790;9.028;2022-09-17T00:33:41;1.65;;;1.30;;
8946;SDS011;4508;48.790;9.028;2022-09-17T00:36:09;2.35;;;1.25;;
8946;SDS011;4508;48.790;9.028;2022-09-17T00:38:36;1.40;;;1.30;;
8946;SDS011;4508;48.790;9.028;2022-09-17T00:41:03;2.40;;;1.25;;
8946;SDS011;4508;48.790;9.028;2022-09-17T00:43:31;2.33;;;1.27;;
8946;SDS011;4508;48.790;9.028;2022-09-17T00:46:01;1.90;;;1.30;;
8946;SDS011;4508;48.790;9.028;2022-09-17T00:48:28;1.90;;;1.48;;
8946;SDS011;4508;48.790;9.028;2022-09-17T00:50:55;1.38;;;1.15;;
8946;SDS011;4508;48.790;9.028;2022-09-17T00:53:26;1.60;;;1.40;;
8946;SDS011;4508;48.790;9.028;2022-09-17T00:55:56;2.40;;;1.47;;
8946;SDS011;4508;48.790;9.028;2022-09-17T00:58:28;1.70;;;1.33;;
8946;SDS011;4508;48.790;9.028;2022-09-17T01:00:56;1.95;;;1.40;;
8946;SDS011;4508;48.790;9.028;2022-09-17T01:03:23;2.13;;;1.77;;
8946;SDS011;4508;48.790;9.028;2022-09-17T01:05:52;2.87;;;1.50;;
8946;SDS011;4508;48.790;9.028;2022-09-17T01:08:29;1.58;;;1.38;;
8946;SDS011;4508;48.790;9.028;2022-09-17T01:14:01;2.20;;;1.35;;
8946;SDS011;4508;48.790;9.028;2022-09-17T01:16:40;1.98;;;1.50;;
8946;SDS011;4508;48.790;9.028;2022-09-17T01:19:19;1.73;;;1.42;;
8946;SDS011;4508;48.790;9.028;2022-09-17T01:22:02;1.85;;;1.38;;
8946;SDS011;4508;48.790;9.028;2022-09-17T01:24:44;1.52;;;1.42;;
8946;SDS011;4508;48.790;9.028;2022-09-17T01:30:14;2.53;;;1.40;;
8946;SDS011;4508;48.790;9.028;2022-09-17T01:32:48;1.75;;;1.40;;
8946;SDS011;4508;48.790;9.028;2022-09-17T01:35:22;2.08;;;1.30;;
8946;SDS011;4508;48.790;9.028;2022-09-17T01:37:58;3.25;;;1.88;;
8946;SDS011;4508;48.790;9.028;2022-09-17T01:40:29;1.50;;;1.40;;
8946;SDS011;4508;48.790;9.028;2022-09-17T01:43:03;2.47;;;1.50;;
8946;SDS011;4508;48.790;9.028;2022-09-17T01:45:34;1.85;;;1.60;;
8946;SDS011;4508;48.790;9.028;2022-09-17T01:48:06;2.00;;;1.60;;
8946;SDS011;4508;48.790;9.028;2022-09-17T01:50:36;3.08;;;1.60;;
8946;SDS011;4508;48.790;9.028;2022-09-17T01:53:06;2.30;;;1.50;;
8946;SDS011;4508;48.790;9.028;2022-09-17T01:55:36;1.70;;;1.60;;
8946;SDS011;4508;48.790;9.028;2022-09-17T01:58:07;2.13;;;1.50;;
8946;SDS011;4508;48.790;9.028;2022-09-17T02:00:38;1.70;;;1.40;;
8946;SDS011;4508;48.790;9.028;2022-09-17T02:03:09;1.92;;;1.45;;
8946;SDS011;4508;48.790;9.028;2022-09-17T02:05:40;2.25;;;1.67;;
8946;SDS011;4508;48.790;9.028;2022-09-17T02:08:12;2.65;;;1.50;;
8946;SDS011;4508;48.790;9.028;2022-09-17T02:10:41;2.87;;;1.47;;
8946;SDS011;4508;48.790;9.028;2022-09-17T02:13:12;2.42;;;1.67;;
8946;SDS011;4508;48.790;9.028;2022-09-17T02:15:42;2.13;;;1.60;;
8946;SDS011;4508;48.790;9.028;2022-09-17T02:18:17;2.13;;;1.40;;
8946;SDS011;4508;48.790;9.028;2022-09-17T02:20:49;4.00;;;1.60;;
8946;SDS011;4508;48.790;9.028;2022-09-17T02:23:22;2.38;;;1.58;;
8946;SDS011;4508;48.790;9.028;2022-09-17T02:25:56;2.10;;;1.30;;
8946;SDS011;4508;48.790;9.028;2022-09-17T02:31:50;2.90;;;1.65;;
8946;SDS011;4508;48.790;9.028;2022-09-17T02:34:19;2.78;;;1.67;;
8946;SDS011;4508;48.790;9.028;2022-09-17T02:36:46;2.40;;;1.65;;
8946;SDS011;4508;48.790;9.028;2022-09-17T02:39:13;2.83;;;1.60;;
8946;SDS011;4508;48.790;9.028;2022-09-17T02:41:43;2.30;;;1.60;;
8946;SDS011;4508;48.790;9.028;2022-09-17T02:44:20;2.78;;;1.50;;
8946;SDS011;4508;48.790;9.028;2022-09-17T02:46:57;3.65;;;1.60;;
8946;SDS011;4508;48.790;9.028;2022-09-17T02:49:51;5.80;;;2.20;;
8946;SDS011;4508;48.790;9.028;2022-09-17T02:52:29;2.30;;;1.60;;
8946;SDS011;4508;48.790;9.028;2022-09-17T02:55:06;2.97;;;1.60;;
8946;SDS011;4508;48.790;9.028;2022-09-17T02:57:43;3.23;;;1.60;;
8946;SDS011;4508;48.790;9.028;2022-09-17T03:00:13;2.75;;;1.63;;
8946;SDS011;4508;48.790;9.028;2022-09-17T03:02:42;3.30;;;1.90;;
8946;SDS011;4508;48.790;9.028;2022-09-17T03:05:14;3.63;;;1.70;;
8946;SDS011;4508;48.790;9.028;2022-09-17T03:07:43;2.33;;;1.50;;
8946;SDS011;4508;48.790;9.028;2022-09-17T03:10:10;3.75;;;1.70;;
8946;SDS011;4508;48.790;9.028;2022-09-17T03:12:38;2.65;;;1.80;;
8946;SDS011;4508;48.790;9.028;2022-09-17T03:15:05;4.72;;;1.80;;
8946;SDS011;4508;48.790;9.028;2022-09-17T03:17:33;3.00;;;1.60;;
8946;SDS011;4508;48.790;9.028;2022-09-17T03:20:00;2.93;;;1.67;;
8946;SDS011;4508;48.790;9.028;2022-09-17T03:22:28;3.17;;;1.77;;
8946;SDS011;4508;48.790;9.028;2022-09-17T03:24:55;2.73;;;1.50;;
8946;SDS011;4508;48.790;9.028;2022-09-17T03:27:22;3.92;;;1.80;;
8946;SDS011;4508;48.790;9.028;2022-09-17T03:29:48;2.72;;;1.80;;
8946;SDS011;4508;48.790;9.028;2022-09-17T03:32:15;3.67;;;1.70;;
8946;SDS011;4508;48.790;9.028;2022-09-17T03:34:42;2.97;;;1.50;;
8946;SDS011;4508;48.790;9.028;2022-09-17T03:37:10;3.13;;;1.63;;
8946;SDS011;4508;48.790;9.028;2022-09-17T03:39:38;3.88;;;2.00;;
8946;SDS011;4508;48.790;9.028;2022-09-17T03:42:05;2.60;;;1.50;;
8946;SDS011;4508;48.790;9.028;2022-09-17T03:44:32;3.43;;;1.40;;
8946;SDS011;4508;48.790;9.028;2022-09-17T03:46:58;3.10;;;1.40;;
8946;SDS011;4508;48.790;9.028;2022-09-17T03:49:25;2.33;;;1.70;;
8946;SDS011;4508;48.790;9.028;2022-09-17T03:51:52;3.50;;;1.70;;
8946;SDS011;4508;48.790;9.028;2022-09-17T03:54:19;3.63;;;1.45;;
8946;SDS011;4508;48.790;9.028;2022-09-17T03:56:47;4.07;;;1.50;;
8946;SDS011;4508;48.790;9.028;2022-09-17T03:59:14;2.45;;;1.52;;
8946;SDS011;4508;48.790;9.028;2022-09-17T04:01:40;4.47;;;1.80;;
8946;SDS011;4508;48.790;9.028;2022-09-17T04:04:07;3.75;;;1.70;;
8946;SDS011;4508;48.790;9.028;2022-09-17T04:06:34;4.35;;;1.60;;
8946;SDS011;4508;48.790;9.028;2022-09-17T04:09:01;3.53;;;1.55;;
8946;SDS011;4508;48.790;9.028;2022-09-17T04:11:29;2.30;;;1.70;;
8946;SDS011;4508;48.790;9.028;2022-09-17T04:13:57;3.20;;;1.63;;
8946;SDS011;4508;48.790;9.028;2022-09-17T04:16:23;3.58;;;1.65;;
8946;SDS011;4508;48.790;9.028;2022-09-17T04:18:50;2.63;;;1.63;;
8946;SDS011;4508;48.790;9.028;2022-09-17T04:21:17;3.67;;;1.70;;
8946;SDS011;4508;48.790;9.028;2022-09-17T04:23:44;4.30;;;1.88;;
8946;SDS011;4508;48.790;9.028;2022-09-17T04:26:11;3.43;;;1.60;;
8946;SDS011;4508;48.790;9.028;2022-09-17T04:28:37;3.65;;;1.50;;
8946;SDS011;4508;48.790;9.028;2022-09-17T04:31:05;4.85;;;1.90;;
8946;SDS011;4508;48.790;9.028;2022-09-17T04:33:32;3.10;;;1.67;;
8946;SDS011;4508;48.790;9.028;2022-09-17T04:35:59;3.03;;;1.50;;
8946;SDS011;4508;48.790;9.028;2022-09-17T04:38:25;3.38;;;1.60;;
8946;SDS011;4508;48.790;9.028;2022-09-17T04:40:52;4.00;;;1.70;;
8946;SDS011;4508;48.790;9.028;2022-09-17T04:43:21;3.83;;;1.88;;
8946;SDS011;4508;48.790;9.028;2022-09-17T04:45:48;4.30;;;1.80;;
8946;SDS011;4508;48.790;9.028;2022-09-17T04:48:16;4.43;;;1.92;;
8946;SDS011;4508;48.790;9.028;2022-09-17T04:50:43;3.42;;;1.75;;
8946;SDS011;4508;48.790;9.028;2022-09-17T04:53:10;4.00;;;1.77;;
8946;SDS011;4508;48.790;9.028;2022-09-17T04:55:37;4.00;;;1.90;;
8946;SDS011;4508;48.790;9.028;2022-09-17T04:58:04;4.50;;;1.90;;
8946;SDS011;4508;48.790;9.028;2022-09-17T05:00:31;3.10;;;1.77;;
8946;SDS011;4508;48.790;9.028;2022-09-17T05:02:59;3.72;;;1.83;;
8946;SDS011;4508;48.790;9.028;2022-09-17T05:05:27;4.20;;;1.73;;
8946;SDS011;4508;48.790;9.028;2022-09-17T05:07:54;4.72;;;2.15;;
8946;SDS011;4508;48.790;9.028;2022-09-17T05:10:21;3.40;;;1.77;;
8946;SDS011;4508;48.790;9.028;2022-09-17T05:12:48;3.60;;;1.80;;
8946;SDS011;4508;48.790;9.028;2022-09-17T05:15:16;5.22;;;2.03;;
8946;SDS011;4508;48.790;9.028;2022-09-17T05:17:43;3.58;;;2.03;;
8946;SDS011;4508;48.790;9.028;2022-09-17T05:20:10;4.68;;;2.30;;
8946;SDS011;4508;48.790;9.028;2022-09-17T05:22:43;4.65;;;2.17;;
8946;SDS011;4508;48.790;9.028;2022-09-17T05:25:10;3.55;;;1.95;;
8946;SDS011;4508;48.790;9.028;2022-09-17T05:27:37;3.03;;;1.90;;
8946;SDS011;4508;48.790;9.028;2022-09-17T05:30:05;4.20;;;2.30;;
8946;SDS011;4508;48.790;9.028;2022-09-17T05:32:33;4.38;;;2.30;;
8946;SDS011;4508;48.790;9.028;2022-09-17T05:35:00;3.92;;;2.00;;
8946;SDS011;4508;48.790;9.028;2022-09-17T05:37:27;3.95;;;1.88;;
8946;SDS011;4508;48.790;9.028;2022-09-17T05:39:55;4.78;;;2.00;;
8946;SDS011;4508;48.790;9.028;2022-09-17T05:42:21;3.80;;;2.20;;
8946;SDS011;4508;48.790;9.028;2022-09-17T05:44:48;4.07;;;2.10;;
8946;SDS011;4508;48.790;9.028;2022-09-17T05:47:15;4.18;;;2.08;;
8946;SDS011;4508;48.790;9.028;2022-09-17T05:49:41;4.38;;;1.95;;
8946;SDS011;4508;48.790;9.028;2022-09-17T05:52:08;3.70;;;2.00;;
8946;SDS011;4508;48.790;9.028;2022-09-17T05:54:35;3.45;;;2.03;;
8946;SDS011;4508;48.790;9.028;2022-09-17T05:57:03;4.88;;;2.45;;
8946;SDS011;4508;48.790;9.028;2022-09-17T05:59:30;3.17;;;1.90;;
8946;SDS011;4508;48.790;9.028;2022-09-17T06:01:57;4.45;;;1.90;;
8946;SDS011;4508;48.790;9.028;2022-09-17T06:04:24;3.33;;;2.00;;
8946;SDS011;4508;48.790;9.028;2022-09-17T06:06:51;4.32;;;1.80;;
8946;SDS011;4508;48.790;9.028;2022-09-17T06:09:17;3.90;;;1.70;;
8946;SDS011;4508;48.790;9.028;2022-09-17T06:11:45;3.53;;;1.83;;
8946;SDS011;4508;48.790;9.028;2022-09-17T06:14:13;4.88;;;1.77;;
8946;SDS011;4508;48.790;9.028;2022-09-17T06:16:40;4.32;;;1.88;;
8946;SDS011;4508;48.790;9.028;2022-09-17T06:19:07;4.22;;;2.03;;
8946;SDS011;4508;48.790;9.028;2022-09-17T06:21:33;5.32;;;1.90;;
8946;SDS011;4508;48.790;9.028;2022-09-17T06:24:00;3.37;;;1.70;;
8946;SDS011;4508;48.790;9.028;2022-09-17T06:26:27;3.35;;;1.80;;
8946;SDS011;4508;48.790;9.028;2022-09-17T06:28:54;3.73;;;2.00;;
8946;SDS011;4508;48.790;9.028;2022-09-17T06:31:24;3.78;;;1.90;;
8946;SDS011;4508;48.790;9.028;2022-09-17T06:33:51;3.80;;;2.00;;
8946;SDS011;4508;48.790;9.028;2022-09-17T06:36:18;5.03;;;2.00;;
8946;SDS011;4508;48.790;9.028;2022-09-17T06:38:44;5.05;;;1.90;;
8946;SDS011;4508;48.790;9.028;2022-09-17T06:41:11;4.43;;;1.80;;
8946;SDS011;4508;48.790;9.028;2022-09-17T06:43:40;4.10;;;2.00;;
8946;SDS011;4508;48.790;9.028;2022-09-17T06:46:08;3.60;;;1.90;;
8946;SDS011;4508;48.790;9.028;2022-09-17T06:48:36;4.13;;;1.90;;
8946;SDS011;4508;48.790;9.028;2022-09-17T06:51:04;4.00;;;1.80;;
8946;SDS011;4508;48.790;9.028;2022-09-17T06:53:32;3.70;;;1.95;;
8946;SDS011;4508;48.790;9.028;2022-09-17T06:56:00;5.50;;;2.60;;
8946;SDS011;4508;48.790;9.028;2022-09-17T06:58:27;4.68;;;1.90;;
8946;SDS011;4508;48.790;9.028;2022-09-17T07:00:56;3.65;;;2.05;;
8946;SDS011;4508;48.790;9.028;2022-09-17T07:03:24;3.27;;;1.80;;
8946;SDS011;4508;48.790;9.028;2022-09-17T07:05:52;3.90;;;1.90;;
8946;SDS011;4508;48.790;9.028;2022-09-17T07:08:19;2.75;;;1.80;;
8946;SDS011;4508;48.790;9.028;2022-09-17T07:10:45;2.73;;;2.27;;
8946;SDS011;4508;48.790;9.028;2022-09-17T07:13:12;3.42;;;2.00;;
8946;SDS011;4508;48.790;9.028;2022-09-17T07:15:39;3.63;;;1.90;;
8946;SDS011;4508;48.790;9.028;2022-09-17T07:18:06;4.03;;;1.90;;
8946;SDS011;4508;48.790;9.028;2022-09-17T07:20:34;5.07;;;2.13;;
8946;SDS011;4508;48.790;9.028;2022-09-17T07:23:03;3.67;;;1.98;;
8946;SDS011;4508;48.790;9.028;2022-09-17T07:25:30;4.10;;;1.90;;
8946;SDS011;4508;48.790;9.028;2022-09-17T07:27:57;3.45;;;1.70;;
8946;SDS011;4508;48.790;9.028;2022-09-17T07:30:23;3.20;;;2.03;;
8946;SDS011;4508;48.790;9.028;2022-09-17T07:32:50;2.75;;;1.77;;
8946;SDS011;4508;48.790;9.028;2022-09-17T07:35:17;2.95;;;1.67;;
8946;SDS011;4508;48.790;9.028;2022-09-17T07:37:44;3.40;;;1.75;;
8946;SDS011;4508;48.790;9.028;2022-09-17T07:40:12;2.42;;;1.83;;
8946;SDS011;4508;48.790;9.028;2022-09-17T07:42:39;2.90;;;1.77;;
8946;SDS011;4508;48.790;9.028;2022-09-17T07:45:06;2.60;;;1.88;;
8946;SDS011;4508;48.790;9.028;2022-09-17T07:47:37;3.30;;;1.90;;
8946;SDS011;4508;48.790;9.028;2022-09-17T07:50:04;2.67;;;1.70;;
8946;SDS011;4508;48.790;9.028;2022-09-17T07:52:32;2.55;;;1.70;;
8946;SDS011;4508;48.790;9.028;2022-09-17T07:54:58;2.80;;;2.10;;
8946;SDS011;4508;48.790;9.028;2022-09-17T07:57:26;3.67;;;2.00;;
8946;SDS011;4508;48.790;9.028;2022-09-17T07:59:53;3.50;;;2.20;;
8946;SDS011;4508;48.790;9.028;2022-09-17T08:02:20;3.50;;;2.13;;
8946;SDS011;4508;48.790;9.028;2022-09-17T08:04:46;2.88;;;2.30;;
8946;SDS011;4508;48.790;9.028;2022-09-17T08:07:13;3.25;;;2.25;;
8946;SDS011;4508;48.790;9.028;2022-09-17T08:09:40;3.70;;;2.13;;
8946;SDS011;4508;48.790;9.028;2022-09-17T08:12:06;3.55;;;2.33;;
8946;SDS011;4508;48.790;9.028;2022-09-17T08:14:35;4.05;;;2.47;;
8946;SDS011;4508;48.790;9.028;2022-09-17T08:17:01;3.83;;;2.30;;
8946;SDS011;4508;48.790;9.028;2022-09-17T08:19:29;4.18;;;2.28;;
8946;SDS011;4508;48.790;9.028;2022-09-17T08:21:56;4.47;;;2.47;;
8946;SDS011;4508;48.790;9.028;2022-09-17T08:24:23;3.65;;;2.50;;
8946;SDS011;4508;48.790;9.028;2022-09-17T08:26:50;5.67;;;2.50;;
8946;SDS011;4508;48.790;9.028;2022-09-17T08:29:16;5.20;;;2.55;;
8946;SDS011;4508;48.790;9.028;2022-09-17T08:31:44;4.55;;;2.58;;
8946;SDS011;4508;48.790;9.028;2022-09-17T08:34:11;5.97;;;2.50;;
8946;SDS011;4508;48.790;9.028;2022-09-17T08:36:38;6.28;;;2.50;;
8946;SDS011;4508;48.790;9.028;2022-09-17T08:39:05;6.05;;;2.67;;
8946;SDS011;4508;48.790;9.028;2022-09-17T08:41:41;6.72;;;2.70;;
8946;SDS011;4508;48.790;9.028;2022-09-17T08:44:21;8.23;;;2.70;;
8946;SDS011;4508;48.790;9.028;2022-09-17T08:46:53;5.97;;;2.47;;
8946;SDS011;4508;48.790;9.028;2022-09-17T08:49:28;4.93;;;2.30;;
8946;SDS011;4508;48.790;9.028;2022-09-17T08:52:11;6.88;;;2.50;;
8946;SDS011;4508;48.790;9.028;2022-09-17T08:55:01;5.97;;;2.60;;
8946;SDS011;4508;48.790;9.028;2022-09-17T08:57:35;5.38;;;2.28;;
8946;SDS011;4508;48.790;9.028;2022-09-17T09:00:08;5.50;;;2.25;;
8946;SDS011;4508;48.790;9.028;2022-09-17T09:02:42;5.40;;;2.50;;
8946;SDS011;4508;48.790;9.028;2022-09-17T09:05:21;6.25;;;2.42;;
8946;SDS011;4508;48.790;9.028;2022-09-17T09:07:54;6.78;;;2.42;;
8946;SDS011;4508;48.790;9.028;2022-09-17T09:10:25;4.97;;;2.55;;
8946;SDS011;4508;48.790;9.028;2022-09-17T09:12:55;7.15;;;2.65;;
8946;SDS011;4508;48.790;9.028;2022-09-17T09:15:27;7.15;;;2.10;;
8946;SDS011;4508;48.790;9.028;2022-09-17T09:18:04;4.28;;;2.13;;
8946;SDS011;4508;48.790;9.028;2022-09-17T09:20:42;5.30;;;2.07;;
8946;SDS011;4508;48.790;9.028;2022-09-17T09:23:16;6.30;;;2.40;;
8946;SDS011;4508;48.790;9.028;2022-09-17T09:25:52;6.80;;;2.35;;
8946;SDS011;4508;48.790;9.028;2022-09-17T09:28:34;7.72;;;2.80;;
8946;SDS011;4508;48.790;9.028;2022-09-17T09:31:11;4.35;;;2.30;;
8946;SDS011;4508;48.790;9.028;2022-09-17T09:33:51;7.15;;;2.50;;
8946;SDS011;4508;48.790;9.028;2022-09-17T09:36:18;4.10;;;2.10;;
8946;SDS011;4508;48.790;9.028;2022-09-17T09:38:48;5.40;;;2.20;;
8946;SDS011;4508;48.790;9.028;2022-09-17T09:41:21;5.70;;;2.38;;
8946;SDS011;4508;48.790;9.028;2022-09-17T09:43:56;6.33;;;2.20;;
8946;SDS011;4508;48.790;9.028;2022-09-17T09:46:32;4.15;;;2.22;;
8946;SDS011;4508;48.790;9.028;2022-09-17T09:49:19;4.90;;;2.40;;
8946;SDS011;4508;48.790;9.028;2022-09-17T09:51:57;5.20;;;2.05;;
8946;SDS011;4508;48.790;9.028;2022-09-17T09:54:41;3.85;;;2.00;;
8946;SDS011;4508;48.790;9.028;2022-09-17T09:57:16;3.90;;;1.90;;
8946;SDS011;4508;48.790;9.028;2022-09-17T09:59:47;4.57;;;2.05;;
8946;SDS011;4508;48.790;9.028;2022-09-17T10:02:14;3.75;;;1.80;;
8946;SDS011;4508;48.790;9.028;2022-09-17T10:04:42;4.32;;;2.00;;
8946;SDS011;4508;48.790;9.028;2022-09-17T10:07:10;3.42;;;1.80;;
8946;SDS011;4508;48.790;9.028;2022-09-17T10:09:40;3.97;;;1.80;;
8946;SDS011;4508;48.790;9.028;2022-09-17T10:12:14;3.70;;;1.70;;
8946;SDS011;4508;48.790;9.028;2022-09-17T10:14:43;4.20;;;1.80;;
8946;SDS011;4508;48.790;9.028;2022-09-17T10:17:15;4.35;;;1.70;;
8946;SDS011;4508;48.790;9.028;2022-09-17T10:22:40;3.22;;;1.80;;
8946;SDS011;4508;48.790;9.028;2022-09-17T10:25:18;4.97;;;1.42;;
8946;SDS011;4508;48.790;9.028;2022-09-17T10:27:56;3.17;;;1.50;;
8946;SDS011;4508;48.790;9.028;2022-09-17T10:30:25;2.90;;;1.60;;
8946;SDS011;4508;48.790;9.028;2022-09-17T10:33:14;2.75;;;1.58;;
8946;SDS011;4508;48.790;9.028;2022-09-17T10:35:54;3.13;;;1.77;;
8946;SDS011;4508;48.790;9.028;2022-09-17T10:38:26;3.10;;;1.50;;
8946;SDS011;4508;48.790;9.028;2022-09-17T10:41:07;2.72;;;1.40;;
8946;SDS011;4508;48.790;9.028;2022-09-17T10:43:45;3.80;;;1.48;;
8946;SDS011;4508;48.790;9.028;2022-09-17T10:46:14;5.30;;;1.42;;
8946;SDS011;4508;48.790;9.028;2022-09-17T10:48:44;3.33;;;1.50;;
8946;SDS011;4508;48.790;9.028;2022-09-17T10:51:23;2.85;;;1.50;;
8946;SDS011;4508;48.790;9.028;2022-09-17T10:56:51;2.17;;;1.33;;
8946;SDS011;4508;48.790;9.028;2022-09-17T10:59:26;2.30;;;1.37;;
8946;SDS011;4508;48.790;9.028;2022-09-17T11:02:24;2.85;;;1.45;;
8946;SDS011;4508;48.790;9.028;2022-09-17T11:05:06;2.70;;;1.40;;
8946;SDS011;4508;48.790;9.028;2022-09-17T11:07:43;2.88;;;1.33;;
8946;SDS011;4508;48.790;9.028;2022-09-17T11:10:19;2.55;;;1.30;;
8946;SDS011;4508;48.790;9.028;2022-09-17T11:12:55;2.80;;;1.30;;
8946;SDS011;4508;48.790;9.028;2022-09-17T11:15:38;3.10;;;1.30;;
8946;SDS011;4508;48.790;9.028;2022-09-17T11:18:27;3.15;;;1.38;;
8946;SDS011;4508;48.790;9.028;2022-09-17T11:27:03;3.75;;;1.23;;
8946;SDS011;4508;48.790;9.028;2022-09-17T11:29:43;2.80;;;1.20;;
8946;SDS011;4508;48.790;9.028;2022-09-17T11:32:29;2.90;;;1.10;;
8946;SDS011;4508;48.790;9.028;2022-09-17T11:35:07;2.00;;;1.08;;
8946;SDS011;4508;48.790;9.028;2022-09-17T11:37:37;2.20;;;1.15;;
8946;SDS011;4508;48.790;9.028;2022-09-17T11:40:14;2.83;;;1.40;;
8946;SDS011;4508;48.790;9.028;2022-09-17T11:42:46;2.55;;;1.15;;
8946;SDS011;4508;48.790;9.028;2022-09-17T11:45:16;2.58;;;1.15;;
8946;SDS011;4508;48.790;9.028;2022-09-17T11:47:46;2.33;;;1.00;;
8946;SDS011;4508;48.790;9.028;2022-09-17T11:50:19;2.38;;;1.00;;
8946;SDS011;4508;48.790;9.028;2022-09-17T11:52:53;1.73;;;1.00;;
8946;SDS011;4508;48.790;9.028;2022-09-17T11:55:29;2.17;;;1.02;;
8946;SDS011;4508;48.790;9.028;2022-09-17T11:58:10;2.67;;;1.17;;
8946;SDS011;4508;48.790;9.028;2022-09-17T12:00:41;2.63;;;1.13;;
8946;SDS011;4508;48.790;9.028;2022-09-17T12:03:17;3.50;;;1.00;;
8946;SDS011;4508;48.790;9.028;2022-09-17T12:05:50;2.65;;;1.25;;
8946;SDS011;4508;48.790;9.028;2022-09-17T12:08:21;3.50;;;1.27;;
8946;SDS011;4508;48.790;9.028;2022-09-17T12:10:54;2.55;;;1.00;;
8946;SDS011;4508;48.790;9.028;2022-09-17T12:13:32;2.80;;;1.40;;
8946;SDS011;4508;48.790;9.028;2022-09-17T12:16:07;1.92;;;1.20;;
8946;SDS011;4508;48.790;9.028;2022-09-17T12:18:45;2.38;;;1.10;;
8946;SDS011;4508;48.790;9.028;2022-09-17T12:21:15;1.85;;;1.00;;
8946;SDS011;4508;48.790;9.028;2022-09-17T12:23:47;2.70;;;1.30;;
8946;SDS011;4508;48.790;9.028;2022-09-17T12:26:22;2.00;;;1.17;;
8946;SDS011;4508;48.790;9.028;2022-09-17T12:29:00;2.75;;;1.30;;
8946;SDS011;4508;48.790;9.028;2022-09-17T12:31:35;2.13;;;1.35;;
8946;SDS011;4508;48.790;9.028;2022-09-17T12:34:15;2.47;;;1.38;;
8946;SDS011;4508;48.790;9.028;2022-09-17T12:36:51;2.20;;;1.20;;
8946;SDS011;4508;48.790;9.028;2022-09-17T12:42:42;2.40;;;1.10;;
8946;SDS011;4508;48.790;9.028;2022-09-17T12:45:47;2.13;;;1.05;;
8946;SDS011;4508;48.790;9.028;2022-09-17T12:48:32;2.08;;;1.13;;
8946;SDS011;4508;48.790;9.028;2022-09-17T12:51:18;1.95;;;1.30;;
8946;SDS011;4508;48.790;9.028;2022-09-17T12:54:06;2.95;;;1.55;;
8946;SDS011;4508;48.790;9.028;2022-09-17T12:56:45;2.53;;;1.40;;
8946;SDS011;4508;48.790;9.028;2022-09-17T12:59:18;3.50;;;1.40;;
8946;SDS011;4508;48.790;9.028;2022-09-17T13:01:52;3.00;;;1.42;;
8946;SDS011;4508;48.790;9.028;2022-09-17T13:04:31;1.67;;;1.00;;
8946;SDS011;4508;48.790;9.028;2022-09-17T13:07:27;1.50;;;1.00;;
8946;SDS011;4508;48.790;9.028;2022-09-17T13:10:21;2.22;;;1.23;;
8946;SDS011;4508;48.790;9.028;2022-09-17T13:13:01;2.30;;;1.48;;
8946;SDS011;4508;48.790;9.028;2022-09-17T13:15:50;2.22;;;1.60;;
8946;SDS011;4508;48.790;9.028;2022-09-17T13:18:28;2.00;;;1.60;;
8946;SDS011;4508;48.790;9.028;2022-09-17T13:21:01;3.10;;;1.45;;
8946;SDS011;4508;48.790;9.028;2022-09-17T13:23:33;1.77;;;1.40;;
8946;SDS011;4508;48.790;9.028;2022-09-17T13:26:04;1.57;;;1.00;;
8946;SDS011;4508;48.790;9.028;2022-09-17T13:28:37;2.28;;;1.35;;
8946;SDS011;4508;48.790;9.028;2022-09-17T13:31:05;1.60;;;1.00;;
8946;SDS011;4508;48.790;9.028;2022-09-17T13:33:53;1.20;;;1.07;;
8946;SDS011;4508;48.790;9.028;2022-09-17T13:36:44;1.80;;;1.10;;
8946;SDS011;4508;48.790;9.028;2022-09-17T13:39:31;1.70;;;1.20;;
8946;SDS011;4508;48.790;9.028;2022-09-17T13:42:03;2.20;;;1.08;;
8946;SDS011;4508;48.790;9.028;2022-09-17T13:44:33;1.40;;;0.90;;
8946;SDS011;4508;48.790;9.028;2022-09-17T13:47:10;2.15;;;1.10;;
8946;SDS011;4508;48.790;9.028;2022-09-17T13:49:46;2.05;;;0.90;;
8946;SDS011;4508;48.790;9.028;2022-09-17T13:52:27;2.20;;;1.30;;
8946;SDS011;4508;48.790;9.028;2022-09-17T13:55:05;2.92;;;1.35;;
8946;SDS011;4508;48.790;9.028;2022-09-17T13:57:33;3.42;;;1.10;;
8946;SDS011;4508;48.790;9.028;2022-09-17T14:03:45;1.92;;;1.17;;
8946;SDS011;4508;48.790;9.028;2022-09-17T14:09:28;1.77;;;1.27;;
8946;SDS011;4508;48.790;9.028;2022-09-17T14:12:21;2.38;;;1.13;;
8946;SDS011;4508;48.790;9.028;2022-09-17T14:15:32;2.38;;;1.20;;
8946;SDS011;4508;48.790;9.028;2022-09-17T14:18:31;2.97;;;1.30;;
8946;SDS011;4508;48.790;9.028;2022-09-17T14:21:11;2.38;;;1.15;;
8946;SDS011;4508;48.790;9.028;2022-09-17T14:23:54;1.98;;;1.10;;
8946;SDS011;4508;48.790;9.028;2022-09-17T14:26:25;1.42;;;1.10;;
8946;SDS011;4508;48.790;9.028;2022-09-17T14:29:07;2.08;;;1.13;;
8946;SDS011;4508;48.790;9.028;2022-09-17T14:31:41;2.13;;;1.30;;
8946;SDS011;4508;48.790;9.028;2022-09-17T14:34:17;3.00;;;1.25;;
8946;SDS011;4508;48.790;9.028;2022-09-17T14:36:47;1.80;;;1.20;;
8946;SDS011;4508;48.790;9.028;2022-09-17T14:39:19;2.40;;;1.20;;
8946;SDS011;4508;48.790;9.028;2022-09-17T14:41:48;1.97;;;1.23;;
8946;SDS011;4508;48.790;9.028;2022-09-17T14:44:17;2.85;;;1.38;;
8946;SDS011;4508;48.790;9.028;2022-09-17T14:46:47;1.58;;;1.20;;
8946;SDS011;4508;48.790;9.028;2022-09-17T14:49:19;1.80;;;1.30;;
8946;SDS011;4508;48.790;9.028;2022-09-17T14:51:47;2.88;;;1.27;;
8946;SDS011;4508;48.790;9.028;2022-09-17T14:54:15;2.50;;;1.40;;
8946;SDS011;4508;48.790;9.028;2022-09-17T14:56:52;2.97;;;1.30;;
8946;SDS011;4508;48.790;9.028;2022-09-17T14:59:28;1.58;;;1.13;;
8946;SDS011;4508;48.790;9.028;2022-09-17T15:02:19;2.70;;;1.27;;
8946;SDS011;4508;48.790;9.028;2022-09-17T15:04:51;1.88;;;1.08;;
8946;SDS011;4508;48.790;9.028;2022-09-17T15:07:19;3.35;;;1.27;;
8946;SDS011;4508;48.790;9.028;2022-09-17T15:09:48;2.05;;;1.10;;
8946;SDS011;4508;48.790;9.028;2022-09-17T15:12:19;2.28;;;1.20;;
8946;SDS011;4508;48.790;9.028;2022-09-17T15:14:49;2.33;;;1.27;;
8946;SDS011;4508;48.790;9.028;2022-09-17T15:17:19;2.75;;;1.30;;
8946;SDS011;4508;48.790;9.028;2022-09-17T15:19:46;1.92;;;1.13;;
8946;SDS011;4508;48.790;9.028;2022-09-17T15:22:16;2.45;;;1.20;;
8946;SDS011;4508;48.790;9.028;2022-09-17T15:24:49;2.42;;;1.20;;
8946;SDS011;4508;48.790;9.028;2022-09-17T15:27:20;2.45;;;1.40;;
8946;SDS011;4508;48.790;9.028;2022-09-17T15:29:50;3.70;;;1.48;;
8946;SDS011;4508;48.790;9.028;2022-09-17T15:32:19;2.77;;;1.20;;
8946;SDS011;4508;48.790;9.028;2022-09-17T15:37:43;2.50;;;1.38;;
8946;SDS011;4508;48.790;9.028;2022-09-17T15:40:12;3.00;;;1.70;;
8946;SDS011;4508;48.790;9.028;2022-09-17T15:42:46;2.25;;;1.30;;
8946;SDS011;4508;48.790;9.028;2022-09-17T15:45:16;2.10;;;1.20;;
8946;SDS011;4508;48.790;9.028;2022-09-17T15:47:54;2.88;;;1.45;;
8946;SDS011;4508;48.790;9.028;2022-09-17T15:50:22;2.63;;;1.40;;
8946;SDS011;4508;48.790;9.028;2022-09-17T15:52:50;2.40;;;1.10;;
8946;SDS011;4508;48.790;9.028;2022-09-17T15:55:29;2.70;;;1.30;;
8946;SDS011;4508;48.790;9.028;2022-09-17T15:57:58;3.08;;;1.50;;
8946;SDS011;4508;48.790;9.028;2022-09-17T16:00:26;2.85;;;1.40;;
8946;SDS011;4508;48.790;9.028;2022-09-17T16:02:53;3.08;;;1.33;;
8946;SDS011;4508;48.790;9.028;2022-09-17T16:08:16;3.38;;;1.58;;
8946;SDS011;4508;48.790;9.028;2022-09-17T16:10:46;1.63;;;1.10;;
8946;SDS011;4508;48.790;9.028;2022-09-17T16:13:13;3.42;;;1.40;;
8946;SDS011;4508;48.790;9.028;2022-09-17T16:15:39;2.53;;;1.38;;
8946;SDS011;4508;48.790;9.028;2022-09-17T16:18:10;2.97;;;1.60;;
8946;SDS011;4508;48.790;9.028;2022-09-17T16:20:37;3.22;;;1.52;;